Huvudsida
METAR-TAF:

METAR-TAF

Flygplatser :

Arvidsjaur, Sverige

Arvidsjaur flygplats

latitud: 65-35-25N, longitud: 019-16-55E, höjd: 379 m

Aktuellt väderrapport

Denna rapport gjordes för 7 minuter sedan, klockan 18:20 UTC
Vind 3 kt från ost
Temperatur 7°C
Fuktighet 53%
Tryck 1011 hPa
Sikt 10 km eller mer
Inga moln under 1 500 m eller inga cumulonimbus

METAR: ESNX 221820Z 08003KT CAVOK 07/M02 Q1011

Tid: 20:27 (18:27 UTC)

Väderprognos

Denna rapport gjordes för 57 minuter sedan, klockan 17:30 UTC
Prognos gäller från 22 kl. 18 UTC till 22 kl. 20 UTC
Vind 5 kt från väst/nordväst
Sikt 10 km eller mer
Inga moln under 1 500 m eller inga cumulonimbus

TAF: ESNX 221730Z 2218/2220 30005KT CAVOK

Aktuella väderrapporter och prognoser från 4000 flygplatser (METAR- och TAF-rapporter).

De tillgängliga stationerna syns som gula och röda prickar på kartan.

För musen över prickarna för att se namnen på stationerna.

Klicka sedan för att få väderrapporter och prognoser.

För att ändra kartan: Klicka på de gröna knapparna med ett svart kors på för att zooma in; den gröna knappen med ett streck på för att zooma ut; eller på de gröna pilarna för angränsande kartor.


METAR-TAF: